Time;durP1;ratioP1;P1;durP2;ratioP2;P2;SDS_P1;SDS_P2;PMS_P1;PMS_P2;Temp;Humidity;BMP_temperature;BMP_pressure;BME280_temperature;BME280_humidity;BME280_pressure;Samples;Min_cycle;Max_cycle;Signal;HPM_P1;HPM_P2
2022/08/01 00:00:20;;;;;;;3.25;2.45;;;22.80;1.00;;;;;;7361485;19;20014;-65
2022/08/01 00:02:50;;;;;;;5.38;2.17;;;22.70;1.00;;;;;;7367151;19;20432;-65
2022/08/01 00:05:20;;;;;;;6.07;2.50;;;22.70;1.00;;;;;;7369328;19;20010;-66
2022/08/01 00:07:50;;;;;;;3.10;1.90;;;22.70;1.00;;;;;;7366238;19;20121;-66
2022/08/01 00:10:22;;;;;;;3.25;2.08;;;22.60;1.00;;;;;;7360381;19;20097;-67
2022/08/01 00:12:52;;;;;;;3.17;1.95;;;22.60;1.00;;;;;;7389933;19;20077;-65
2022/08/01 00:15:22;;;;;;;3.13;1.95;;;22.50;1.00;;;;;;7367508;19;20011;-66
2022/08/01 00:17:52;;;;;;;3.55;2.33;;;22.50;1.00;;;;;;7365874;19;20014;-66
2022/08/01 00:20:22;;;;;;;2.55;2.28;;;22.40;1.00;;;;;;7361525;19;20013;-65
2022/08/01 00:22:52;;;;;;;3.95;2.15;;;22.40;1.00;;;;;;7367682;19;20122;-65
2022/08/01 00:25:24;;;;;;;3.75;2.25;;;22.40;1.00;;;;;;7368896;19;20026;-65
2022/08/01 00:28:03;;;;;;;3.50;2.10;;;22.40;1.00;;;;;;7383663;19;20015;-65
2022/08/01 00:30:33;;;;;;;3.20;2.33;;;22.40;1.00;;;;;;7380363;19;20011;-65
2022/08/01 00:33:03;;;;;;;2.58;2.00;;;22.40;1.00;;;;;;7366152;19;20018;-66
2022/08/01 00:35:33;;;;;;;4.65;2.10;;;22.40;1.00;;;;;;7366120;19;20015;-65
2022/08/01 00:38:05;;;;;;;4.60;2.10;;;22.40;1.00;;;;;;7363628;19;20018;-65
2022/08/01 00:40:38;;;;;;;2.47;2.22;;;22.40;1.00;;;;;;7356702;19;20470;-66
2022/08/01 00:43:08;;;;;;;2.63;2.20;;;22.40;1.00;;;;;;7363832;19;20061;-66
2022/08/01 00:45:40;;;;;;;2.97;2.40;;;22.40;1.00;;;;;;7387845;19;20439;-66
2022/08/01 00:48:12;;;;;;;2.63;2.15;;;22.30;1.00;;;;;;7363954;19;20040;-66
2022/08/01 00:50:49;;;;;;;2.75;2.15;;;22.30;1.00;;;;;;7357448;19;20015;-66
2022/08/01 00:53:22;;;;;;;3.35;2.47;;;22.30;1.00;;;;;;7366626;19;20010;-65
2022/08/01 00:55:57;;;;;;;2.80;2.20;;;22.30;1.00;;;;;;7364839;19;20007;-65
2022/08/01 00:58:32;;;;;;;2.65;2.22;;;22.30;1.00;;;;;;7363439;19;20014;-66
2022/08/01 01:01:02;;;;;;;3.45;2.17;;;22.20;1.00;;;;;;7379058;19;20010;-66
2022/08/01 01:03:40;;;;;;;3.75;2.33;;;22.20;1.00;;;;;;7365838;19;20012;-66
2022/08/01 01:06:37;;;;;;;3.60;2.50;;;22.20;1.00;;;;;;7364075;19;20018;-66
2022/08/01 01:09:29;;;;;;;3.97;2.40;;;22.20;1.00;;;;;;7364788;19;20090;-66
2022/08/01 01:12:12;;;;;;;3.13;2.00;;;22.20;1.00;;;;;;7358932;19;20834;-66
2022/08/01 01:14:47;;;;;;;3.40;2.33;;;22.10;1.00;;;;;;7365312;19;20039;-66
2022/08/01 01:17:19;;;;;;;3.35;2.40;;;22.10;1.00;;;;;;7366663;19;20036;-66
2022/08/01 01:20:14;;;;;;;3.70;2.53;;;22.10;1.00;;;;;;7357900;19;20018;-65
2022/08/01 01:23:17;;;;;;;2.50;2.20;;;22.00;1.00;;;;;;7362759;19;20074;-67
2022/08/01 01:26:03;;;;;;;2.67;2.10;;;22.00;1.00;;;;;;7364866;19;20090;-66
2022/08/01 01:28:44;;;;;;;3.70;2.80;;;21.90;1.00;;;;;;7364497;19;20541;-65
2022/08/01 01:31:21;;;;;;;2.65;2.15;;;21.80;1.00;;;;;;7357761;19;20019;-65
2022/08/01 01:33:53;;;;;;;2.28;2.08;;;21.80;1.00;;;;;;7386896;19;20024;-66
2022/08/01 01:36:24;;;;;;;3.10;2.35;;;21.80;1.00;;;;;;7364123;19;20019;-65
2022/08/01 01:38:55;;;;;;;3.15;2.40;;;21.80;1.00;;;;;;7363613;19;20826;-66
2022/08/01 01:41:26;;;;;;;2.60;2.38;;;21.80;1.00;;;;;;7358542;19;20070;-69
2022/08/01 01:43:57;;;;;;;3.78;2.50;;;21.80;1.00;;;;;;7365384;19;20014;-67
2022/08/01 01:46:33;;;;;;;7.53;2.50;;;21.80;1.00;;;;;;7364743;19;20550;-67
2022/08/01 01:49:09;;;;;;;3.90;2.53;;;21.80;1.00;;;;;;7379718;19;20013;-66
2022/08/01 01:51:41;;;;;;;3.15;2.47;;;21.80;1.00;;;;;;7378924;19;20485;-66
2022/08/01 01:54:24;;;;;;;6.72;2.72;;;21.70;1.00;;;;;;7363586;19;20017;-65
2022/08/01 01:56:58;;;;;;;4.53;2.22;;;21.70;1.00;;;;;;7363684;19;20082;-66
2022/08/01 01:59:31;;;;;;;3.47;2.65;;;21.70;1.00;;;;;;7364584;19;20006;-66
2022/08/01 02:02:08;;;;;;;3.27;2.27;;;21.60;1.00;;;;;;7355680;19;20018;-67
2022/08/01 02:04:45;;;;;;;2.97;2.05;;;21.60;1.00;;;;;;7364932;19;20559;-66
2022/08/01 02:07:17;;;;;;;3.88;2.60;;;21.60;1.00;;;;;;7363151;19;20006;-67
2022/08/01 02:09:50;;;;;;;3.78;2.40;;;21.50;1.00;;;;;;7385804;19;20090;-66
2022/08/01 02:12:22;;;;;;;4.60;2.70;;;21.50;1.00;;;;;;7357766;19;20015;-64
2022/08/01 02:14:55;;;;;;;2.65;2.45;;;21.50;1.00;;;;;;7364359;19;20454;-65
2022/08/01 02:17:29;;;;;;;2.50;2.30;;;21.40;1.00;;;;;;7362760;19;20010;-65
2022/08/01 02:19:59;;;;;;;2.67;2.20;;;21.40;1.00;;;;;;7362593;19;20034;-65
2022/08/01 02:22:33;;;;;;;4.93;2.60;;;21.30;1.00;;;;;;7359979;19;20028;-66
2022/08/01 02:25:13;;;;;;;3.95;2.58;;;21.30;1.00;;;;;;7364125;19;20025;-66
2022/08/01 02:27:47;;;;;;;2.92;2.63;;;21.30;1.00;;;;;;7383221;19;20411;-67
2022/08/01 02:30:18;;;;;;;3.92;2.58;;;21.30;1.00;;;;;;7359581;19;20014;-67
2022/08/01 02:32:55;;;;;;;3.22;2.30;;;21.20;1.00;;;;;;7370186;19;20050;-66
2022/08/01 02:35:29;;;;;;;3.50;2.60;;;21.10;1.00;;;;;;7371786;19;20006;-66
2022/08/01 02:38:01;;;;;;;2.90;2.67;;;21.10;1.00;;;;;;7370613;19;20087;-65
2022/08/01 02:40:34;;;;;;;2.42;2.20;;;21.10;1.00;;;;;;7364088;19;20462;-67
2022/08/01 02:43:07;;;;;;;3.83;2.40;;;21.00;1.00;;;;;;7377540;19;20035;-66
2022/08/01 02:45:39;;;;;;;2.95;2.38;;;21.00;1.00;;;;;;7392220;19;20025;-65
2022/08/01 02:48:15;;;;;;;3.78;2.25;;;20.90;1.00;;;;;;7370123;19;20010;-66
2022/08/01 02:50:47;;;;;;;5.28;2.80;;;20.90;1.00;;;;;;7364158;19;20011;-66
2022/08/01 02:53:21;;;;;;;6.15;2.85;;;20.80;1.00;;;;;;7370657;19;20066;-66
2022/08/01 02:56:13;;;;;;;3.25;2.92;;;20.90;1.00;;;;;;7369852;19;20030;-66
2022/08/01 02:58:44;;;;;;;3.15;2.50;;;20.80;1.00;;;;;;7369367;19;20010;-66
2022/08/01 03:01:15;;;;;;;2.85;2.25;;;20.80;1.00;;;;;;7361203;19;20562;-66
2022/08/01 03:03:50;;;;;;;7.25;2.50;;;20.80;1.00;;;;;;7392262;19;21456;-65
2022/08/01 03:06:21;;;;;;;5.20;2.75;;;20.80;1.00;;;;;;7369610;19;20011;-65
2022/08/01 03:08:54;;;;;;;2.85;2.45;;;20.80;1.00;;;;;;7369134;19;20026;-65
2022/08/01 03:11:26;;;;;;;5.57;2.50;;;20.80;1.00;;;;;;7362976;19;20011;-68
2022/08/01 03:13:57;;;;;;;3.33;2.38;;;20.80;1.00;;;;;;7370228;19;20035;-67
2022/08/01 03:16:29;;;;;;;2.72;2.38;;;20.70;1.00;;;;;;7369248;19;20015;-67
2022/08/01 03:19:04;;;;;;;3.92;2.50;;;20.70;1.00;;;;;;7391944;19;20014;-65
2022/08/01 03:21:34;;;;;;;2.72;2.53;;;20.80;1.00;;;;;;7362072;19;20013;-66
2022/08/01 03:24:07;;;;;;;4.10;2.92;;;20.80;1.00;;;;;;7368287;19;20014;-66
2022/08/01 03:26:40;;;;;;;4.28;2.53;;;20.70;1.00;;;;;;7367542;19;20023;-66
2022/08/01 03:29:15;;;;;;;4.03;2.70;;;20.70;1.00;;;;;;7368852;19;20007;-66
2022/08/01 03:31:48;;;;;;;3.42;2.53;;;20.60;1.00;;;;;;7362168;19;20017;-66
2022/08/01 03:34:23;;;;;;;2.92;2.40;;;20.60;1.00;;;;;;7368811;19;20014;-66
2022/08/01 03:37:04;;;;;;;4.00;2.80;;;20.50;1.00;;;;;;7389788;19;20011;-66
2022/08/01 03:39:37;;;;;;;3.20;2.50;;;20.60;1.00;;;;;;7368320;19;20031;-65
2022/08/01 03:42:12;;;;;;;3.22;2.53;;;20.50;1.00;;;;;;7359427;19;20015;-66
2022/08/01 03:44:43;;;;;;;3.83;2.20;;;20.50;1.00;;;;;;7368181;19;20025;-65
2022/08/01 03:47:14;;;;;;;3.45;2.47;;;20.50;1.00;;;;;;7369107;19;20013;-66
2022/08/01 03:49:49;;;;;;;4.35;2.55;;;20.50;1.00;;;;;;7369140;19;20013;-65
2022/08/01 03:52:19;;;;;;;2.92;2.50;;;20.40;1.00;;;;;;7370124;19;20017;-66
2022/08/01 03:54:51;;;;;;;3.17;2.55;;;20.30;1.00;;;;;;7391288;19;20085;-66
2022/08/01 03:57:22;;;;;;;2.90;2.40;;;20.30;1.00;;;;;;7369523;19;20010;-66
2022/08/01 04:00:09;;;;;;;3.17;2.45;;;20.20;1.00;;;;;;7371137;19;20509;-65
2022/08/01 04:02:40;;;;;;;3.28;2.45;;;20.30;1.00;;;;;;7372606;19;20022;-65
2022/08/01 04:05:13;;;;;;;3.67;2.33;;;20.30;1.00;;;;;;7370928;19;20112;-66
2022/08/01 04:07:47;;;;;;;5.22;2.70;;;20.30;1.00;;;;;;7370124;19;20493;-66
2022/08/01 04:10:18;;;;;;;4.20;2.40;;;20.30;1.00;;;;;;7371186;19;20087;-65
2022/08/01 04:12:48;;;;;;;5.35;3.47;;;20.20;1.00;;;;;;7394460;19;20011;-65
2022/08/01 04:15:20;;;;;;;4.60;2.70;;;20.30;1.00;;;;;;7370215;19;20035;-66
2022/08/01 04:17:50;;;;;;;4.18;2.47;;;20.40;1.00;;;;;;7370238;19;20029;-65
2022/08/01 04:20:23;;;;;;;3.08;2.40;;;21.50;1.00;;;;;;7371923;19;20010;-65
2022/08/01 04:22:54;;;;;;;3.72;2.30;;;22.50;1.00;;;;;;7372524;19;20038;-65
2022/08/01 04:25:30;;;;;;;2.38;2.17;;;23.10;1.00;;;;;;7371218;19;20011;-65
2022/08/01 04:28:03;;;;;;;2.70;2.40;;;23.80;1.00;;;;;;7393451;19;20018;-66
2022/08/01 04:30:36;;;;;;;2.88;2.15;;;24.10;1.00;;;;;;7371071;19;20011;-65
2022/08/01 04:33:09;;;;;;;3.45;2.53;;;23.50;1.00;;;;;;7371160;19;20021;-66
2022/08/01 04:35:45;;;;;;;3.85;2.35;;;24.50;1.00;;;;;;7369314;19;20081;-66
2022/08/01 04:38:36;;;;;;;3.08;2.00;;;25.10;1.00;;;;;;7371693;19;20012;-67
2022/08/01 04:41:08;;;;;;;2.20;2.00;;;25.40;1.00;;;;;;7370395;19;20046;-66
2022/08/01 04:43:39;;;;;;;4.57;2.38;;;25.60;1.00;;;;;;7370874;19;20023;-66
2022/08/01 04:46:10;;;;;;;5.25;2.20;;;25.80;1.00;;;;;;7369513;19;20010;-67
2022/08/01 04:48:41;;;;;;;6.20;2.33;;;26.20;1.00;;;;;;7393173;19;20021;-66
2022/08/01 04:51:21;;;;;;;3.78;2.22;;;26.20;1.00;;;;;;7367893;19;20081;-66
2022/08/01 04:53:52;;;;;;;3.15;1.80;;;26.60;1.00;;;;;;7369214;19;20028;-66
2022/08/01 04:56:23;;;;;;;4.22;2.35;;;27.00;1.00;;;;;;7369054;19;20534;-66
2022/08/01 04:59:39;;;;;;;2.92;1.88;;;27.20;1.00;;;;;;7368254;19;20015;-66
2022/08/01 05:01:51;;;;;;;3.40;1.88;;;27.60;1.00;;;;;;7369997;19;20014;-66
2022/08/01 05:04:21;;;;;;;4.97;2.15;;;27.20;1.00;;;;;;7369255;19;20073;-66
2022/08/01 05:06:54;;;;;;;3.75;1.85;;;27.50;1.00;;;;;;7390277;19;20025;-66
2022/08/01 05:09:24;;;;;;;7.53;1.75;;;27.50;1.00;;;;;;7370114;19;20011;-65
2022/08/01 05:12:01;;;;;;;6.80;2.13;;;27.60;1.00;;;;;;7368950;19;20014;-66
2022/08/01 05:14:32;;;;;;;2.13;1.70;;;28.10;1.00;;;;;;7369158;19;20508;-67
2022/08/01 05:17:04;;;;;;;5.45;1.80;;;28.70;1.00;;;;;;7368486;19;20073;-65
2022/08/01 05:19:35;;;;;;;4.50;1.73;;;29.20;1.00;;;;;;7368351;19;20015;-66
2022/08/01 05:22:10;;;;;;;3.03;1.70;;;28.80;1.00;;;;;;7372431;19;20014;-66
2022/08/01 05:24:42;;;;;;;3.70;1.98;;;28.80;1.00;;;;;;7389728;19;20114;-66
2022/08/01 05:27:13;;;;;;;3.92;1.90;;;29.00;1.00;;;;;;7366458;19;20482;-66
2022/08/01 05:29:45;;;;;;;3.92;1.92;;;28.50;1.00;;;;;;7368466;19;20031;-66
2022/08/01 05:32:15;;;;;;;1.85;1.55;;;27.80;1.00;;;;;;7368938;19;20081;-66
2022/08/01 05:34:45;;;;;;;2.78;1.90;;;28.20;1.00;;;;;;7368030;19;20007;-66
2022/08/01 05:37:17;;;;;;;3.78;1.83;;;28.50;1.00;;;;;;7366882;19;20031;-65
2022/08/01 05:39:47;;;;;;;7.30;2.03;;;29.10;1.00;;;;;;7390544;19;20019;-66
2022/08/01 05:42:17;;;;;;;6.35;2.08;;;26.40;1.00;;;;;;7368665;19;20027;-66
2022/08/01 05:44:47;;;;;;;2.10;1.70;;;25.10;1.00;;;;;;7367581;19;20017;-66
2022/08/01 05:47:17;;;;;;;3.83;1.55;;;26.30;1.00;;;;;;7365933;19;20014;-65
2022/08/01 05:49:47;;;;;;;4.57;2.13;;;26.30;1.00;;;;;;7366136;19;20449;-66
2022/08/01 05:52:19;;;;;;;1.63;1.45;;;27.20;1.00;;;;;;7368629;19;20111;-66
2022/08/01 05:54:49;;;;;;;4.88;1.90;;;25.60;1.00;;;;;;7389279;19;20025;-66
2022/08/01 05:57:19;;;;;;;2.08;1.77;;;26.00;1.00;;;;;;7365164;19;20034;-66
2022/08/01 05:59:49;;;;;;;3.67;1.70;;;26.50;1.00;;;;;;7367139;19;20019;-67
2022/08/01 06:02:19;;;;;;;5.20;2.47;;;25.40;1.00;;;;;;7366157;19;20085;-66
2022/08/01 06:04:48;;;;;;;5.43;1.92;;;25.00;1.00;;;;;;7366922;19;20082;-66
2022/08/01 06:07:21;;;;;;;5.93;2.40;;;24.90;1.00;;;;;;7372207;19;20286;-64
2022/08/01 06:09:51;;;;;;;6.53;1.83;;;25.00;1.00;;;;;;7397121;19;20015;-67
2022/08/01 06:12:21;;;;;;;3.55;1.70;;;24.60;1.00;;;;;;7374684;19;20078;-66
2022/08/01 06:14:52;;;;;;;4.32;1.83;;;24.90;1.00;;;;;;7373192;19;20086;-68
2022/08/01 06:17:22;;;;;;;3.97;1.67;;;24.60;1.00;;;;;;7374110;19;20086;-66
2022/08/01 06:19:51;;;;;;;4.68;1.83;;;24.10;1.00;;;;;;7374596;19;20478;-66
2022/08/01 06:22:24;;;;;;;1.85;1.30;;;24.50;1.00;;;;;;7374914;19;20014;-66
2022/08/01 06:24:54;;;;;;;3.67;1.50;;;24.60;1.00;;;;;;7396659;19;20082;-66
2022/08/01 06:27:24;;;;;;;4.68;1.27;;;25.00;1.00;;;;;;7371747;19;20038;-66
2022/08/01 06:29:56;;;;;;;2.60;1.20;;;26.40;1.00;;;;;;7374605;19;20029;-65
2022/08/01 06:32:26;;;;;;;5.10;1.13;;;26.40;1.00;;;;;;7374872;19;20077;-65
2022/08/01 06:34:57;;;;;;;1.88;1.35;;;25.90;1.00;;;;;;7373523;19;20010;-65
2022/08/01 06:37:31;;;;;;;2.47;1.25;;;26.80;1.00;;;;;;7371630;19;20034;-65
2022/08/01 06:40:03;;;;;;;3.13;1.20;;;26.10;1.00;;;;;;7397112;19;20014;-66
2022/08/01 06:42:35;;;;;;;3.30;1.35;;;26.50;1.00;;;;;;7372586;19;20074;-65
2022/08/01 06:45:05;;;;;;;1.48;1.35;;;25.50;1.00;;;;;;7372242;19;20110;-65
2022/08/01 06:47:41;;;;;;;4.10;1.30;;;25.10;1.00;;;;;;7371786;19;20082;-67
2022/08/01 06:50:13;;;;;;;3.35;1.25;;;24.50;1.00;;;;;;7374298;19;20011;-66
2022/08/01 06:52:46;;;;;;;2.72;1.50;;;24.40;1.00;;;;;;7372366;19;20461;-66
2022/08/01 06:55:16;;;;;;;1.60;1.13;;;24.40;1.00;;;;;;7374222;19;20018;-65
2022/08/01 06:57:50;;;;;;;2.35;1.20;;;24.50;1.00;;;;;;7391607;19;20470;-65
2022/08/01 07:00:25;;;;;;;3.60;1.50;;;24.90;1.00;;;;;;7373408;19;20012;-66
2022/08/01 07:02:58;;;;;;;5.53;1.67;;;24.40;1.00;;;;;;7371963;19;20016;-66
2022/08/01 07:05:30;;;;;;;1.77;1.10;;;24.80;1.00;;;;;;7372961;19;20018;-65
2022/08/01 07:08:03;;;;;;;1.95;1.48;;;24.50;1.00;;;;;;7372940;19;20020;-65
2022/08/01 07:10:33;;;;;;;1.70;1.30;;;24.70;1.00;;;;;;7373258;19;20015;-65
2022/08/01 07:13:02;;;;;;;3.10;1.20;;;24.70;1.00;;;;;;7395136;19;20034;-64
2022/08/01 07:15:32;;;;;;;2.50;1.40;;;24.60;1.00;;;;;;7372391;19;20015;-64
2022/08/01 07:18:03;;;;;;;1.67;1.30;;;25.00;1.00;;;;;;7372049;19;20098;-66
2022/08/01 07:20:36;;;;;;;1.75;1.42;;;25.10;1.00;;;;;;7374196;19;20026;-67
2022/08/01 07:23:24;;;;;;;1.45;1.33;;;25.30;1.00;;;;;;7372099;19;20006;-65
2022/08/01 07:26:06;;;;;;;5.32;1.83;;;24.40;1.00;;;;;;7369057;19;20366;-65
2022/08/01 07:28:36;;;;;;;1.75;1.45;;;25.10;1.00;;;;;;7372861;19;20018;-66
2022/08/01 07:31:12;;;;;;;2.15;1.30;;;25.30;1.00;;;;;;7373750;19;20470;-66
2022/08/01 07:33:42;;;;;;;1.65;1.30;;;24.90;1.00;;;;;;7393865;19;20074;-65
2022/08/01 07:36:18;;;;;;;2.55;1.50;;;25.50;1.00;;;;;;7370957;19;20009;-65
2022/08/01 07:38:51;;;;;;;3.33;1.30;;;24.40;1.00;;;;;;7370299;19;20056;-65
2022/08/01 07:41:21;;;;;;;5.13;2.17;;;25.00;1.00;;;;;;7369830;19;20062;-65
2022/08/01 07:44:11;;;;;;;2.78;1.25;;;24.40;1.00;;;;;;7370791;19;20010;-66
2022/08/01 07:46:40;;;;;;;4.43;1.67;;;25.00;1.00;;;;;;7369649;19;20007;-66
2022/08/01 07:49:10;;;;;;;3.13;1.60;;;24.50;1.00;;;;;;7372196;19;20077;-65
2022/08/01 07:51:40;;;;;;;7.88;1.58;;;24.90;1.00;;;;;;7393172;19;20038;-66
2022/08/01 07:54:13;;;;;;;4.22;1.58;;;25.10;1.00;;;;;;7371002;19;20077;-66
2022/08/01 07:56:43;;;;;;;4.47;1.42;;;25.10;1.00;;;;;;7369947;19;20014;-66
2022/08/01 07:59:12;;;;;;;3.65;1.55;;;24.40;1.00;;;;;;7369816;19;20014;-65
2022/08/01 08:01:53;;;;;;;3.45;1.40;;;24.90;1.00;;;;;;7370022;19;20014;-65
2022/08/01 08:04:23;;;;;;;2.20;1.35;;;24.80;1.00;;;;;;7371122;19;20057;-66
2022/08/01 08:06:53;;;;;;;3.92;1.60;;;24.90;1.00;;;;;;7391396;19;20019;-66
2022/08/01 08:09:26;;;;;;;5.53;1.67;;;24.70;1.00;;;;;;7370857;19;20030;-65
2022/08/01 08:11:55;;;;;;;4.60;1.70;;;24.70;1.00;;;;;;7370667;19;20378;-65
2022/08/01 08:14:25;;;;;;;1.50;1.40;;;25.00;1.00;;;;;;7370492;19;20032;-66
2022/08/01 08:17:01;;;;;;;1.70;1.13;;;25.40;1.00;;;;;;7370126;19;20015;-66
2022/08/01 08:19:33;;;;;;;4.60;1.48;;;25.60;1.00;;;;;;7369821;19;20015;-65
2022/08/01 08:22:07;;;;;;;1.70;1.35;;;26.30;1.00;;;;;;7370921;19;20010;-66
2022/08/01 08:24:41;;;;;;;2.95;1.50;;;26.00;1.00;;;;;;7390728;19;20022;-66
2022/08/01 08:27:15;;;;;;;2.78;1.85;;;25.50;1.00;;;;;;7367341;19;20354;-66
2022/08/01 08:29:47;;;;;;;1.85;1.30;;;24.90;1.00;;;;;;7368419;19;20021;-67
2022/08/01 08:32:17;;;;;;;4.57;2.65;;;25.30;1.00;;;;;;7370114;19;20446;-67
2022/08/01 08:34:47;;;;;;;3.63;1.90;;;25.50;1.00;;;;;;7368723;19;20007;-68
2022/08/01 08:37:19;;;;;;;3.85;2.00;;;25.20;1.00;;;;;;7366857;19;20014;-67
2022/08/01 08:39:52;;;;;;;2.58;1.80;;;25.10;1.00;;;;;;7388744;19;20308;-67
2022/08/01 08:42:22;;;;;;;4.97;2.10;;;25.30;1.00;;;;;;7368343;19;20011;-67
2022/08/01 08:44:54;;;;;;;1.77;1.42;;;25.70;1.00;;;;;;7367997;19;20016;-67
2022/08/01 08:47:26;;;;;;;9.10;1.88;;;25.40;1.00;;;;;;7367707;19;20012;-67
2022/08/01 08:49:58;;;;;;;1.70;1.27;;;26.10;1.00;;;;;;7368205;19;20047;-67
2022/08/01 08:52:28;;;;;;;4.60;1.60;;;25.90;1.00;;;;;;7369276;19;20102;-67
2022/08/01 08:55:01;;;;;;;3.80;1.70;;;26.10;1.00;;;;;;7388527;19;20492;-66
2022/08/01 08:57:31;;;;;;;2.33;1.60;;;26.00;1.00;;;;;;7365392;19;20484;-69
2022/08/01 09:00:01;;;;;;;2.58;1.80;;;25.30;1.00;;;;;;7366782;19;20469;-66
2022/08/01 09:02:31;;;;;;;2.67;1.95;;;25.30;1.00;;;;;;7368829;19;20462;-66
2022/08/01 09:05:01;;;;;;;7.35;3.60;;;25.60;1.00;;;;;;7368952;19;20030;-66
2022/08/01 09:07:31;;;;;;;6.28;4.05;;;25.30;1.00;;;;;;7366607;19;20355;-67
2022/08/01 09:10:04;;;;;;;5.03;3.40;;;25.00;1.00;;;;;;7390116;19;20058;-67
2022/08/01 09:12:34;;;;;;;3.95;3.28;;;25.20;1.00;;;;;;7368553;19;20035;-67
2022/08/01 09:15:04;;;;;;;6.80;3.28;;;25.70;1.00;;;;;;7367210;19;20081;-66
2022/08/01 09:17:43;;;;;;;5.25;3.72;;;25.50;1.00;;;;;;7367594;19;20388;-66
2022/08/01 09:20:26;;;;;;;7.25;3.60;;;25.70;1.00;;;;;;7366607;19;20006;-66
2022/08/01 09:22:56;;;;;;;4.65;3.40;;;25.40;1.00;;;;;;7367956;19;20021;-66
2022/08/01 09:25:33;;;;;;;5.22;2.67;;;25.40;1.00;;;;;;7367149;19;20439;-67
2022/08/01 09:28:16;;;;;;;3.55;3.25;;;25.30;1.00;;;;;;7367498;19;20100;-67
2022/08/01 09:30:46;;;;;;;5.28;3.10;;;25.80;1.00;;;;;;7388602;19;20086;-67
2022/08/01 09:33:16;;;;;;;3.63;3.15;;;26.50;1.00;;;;;;7366249;19;20092;-68
2022/08/01 09:35:57;;;;;;;3.83;3.08;;;25.80;1.00;;;;;;7366747;19;20425;-67
2022/08/01 09:38:29;;;;;;;4.72;2.92;;;25.80;1.00;;;;;;7367226;19;20541;-66
2022/08/01 09:41:03;;;;;;;5.07;2.97;;;26.00;1.00;;;;;;7363959;19;20017;-67
2022/08/01 09:43:34;;;;;;;4.07;2.70;;;27.00;1.00;;;;;;7367021;19;20010;-67
2022/08/01 09:46:11;;;;;;;5.65;2.75;;;26.00;1.00;;;;;;7359376;19;20379;-67
2022/08/01 09:48:42;;;;;;;3.42;2.45;;;26.50;1.00;;;;;;7381812;19;20048;-68
2022/08/01 09:51:31;;;;;;;5.47;3.78;;;26.50;1.00;;;;;;7362041;19;20474;-68
2022/08/01 09:54:31;;;;;;;4.03;2.70;;;26.40;1.00;;;;;;7364821;19;20021;-66
2022/08/01 09:57:15;;;;;;;3.08;2.50;;;26.80;1.00;;;;;;7359652;19;20267;-67
2022/08/01 09:59:48;;;;;;;2.63;2.20;;;26.60;1.00;;;;;;7362973;19;20013;-67
2022/08/01 10:02:32;;;;;;;4.70;2.20;;;26.90;1.00;;;;;;7364956;19;20010;-67
2022/08/01 10:05:04;;;;;;;;;;;27.00;1.00;;;;;;7365128;19;20128;-67
2022/08/01 10:07:37;;;;;;;3.38;2.10;;;26.80;1.00;;;;;;7359119;19;19907;-67
2022/08/01 10:10:15;;;;;;;2.22;1.98;;;26.80;1.00;;;;;;7363603;19;20019;-68
2022/08/01 10:12:49;;;;;;;3.42;2.00;;;26.90;1.00;;;;;;7385972;19;20010;-68
2022/08/01 10:15:20;;;;;;;2.45;1.90;;;26.90;1.00;;;;;;7363567;19;20011;-67
2022/08/01 10:18:08;;;;;;;3.10;2.00;;;27.00;1.00;;;;;;7358578;19;20025;-66
2022/08/01 10:20:55;;;;;;;2.97;1.52;;;27.20;1.00;;;;;;7363207;19;20477;-68
2022/08/01 10:23:28;;;;;;;2.35;2.00;;;27.70;1.00;;;;;;7365284;19;20013;-67
2022/08/01 10:26:10;;;;;;;5.35;2.00;;;27.70;1.00;;;;;;7363039;19;20025;-68
2022/08/01 10:28:46;;;;;;;2.85;1.70;;;27.80;1.00;;;;;;7356785;19;20014;-67
2022/08/01 10:31:16;;;;;;;3.95;1.80;;;27.70;1.00;;;;;;7363513;19;20098;-68
2022/08/01 10:33:47;;;;;;;4.22;1.90;;;27.50;1.00;;;;;;7386075;19;20022;-67
2022/08/01 10:36:23;;;;;;;4.68;1.70;;;27.30;1.00;;;;;;7362354;19;20017;-67
2022/08/01 10:38:56;;;;;;;2.65;1.77;;;27.20;1.00;;;;;;7358698;19;20396;-69
2022/08/01 10:41:26;;;;;;;3.30;1.98;;;27.30;1.00;;;;;;7363586;19;20074;-69
2022/08/01 10:44:00;;;;;;;3.33;2.10;;;27.60;1.00;;;;;;7364637;19;20406;-68
2022/08/01 10:46:32;;;;;;;5.97;2.10;;;28.10;1.00;;;;;;7359908;19;20010;-67
2022/08/01 10:49:07;;;;;;;2.97;1.70;;;27.90;1.00;;;;;;7383921;19;20014;-69
2022/08/01 10:51:38;;;;;;;3.92;2.00;;;27.20;1.00;;;;;;7365190;19;20010;-69
2022/08/01 10:54:27;;;;;;;3.05;2.05;;;27.50;1.00;;;;;;7371649;19;20026;-68
2022/08/01 10:57:04;;;;;;;3.22;1.98;;;27.90;1.00;;;;;;7363031;19;20075;-67
2022/08/01 10:59:49;;;;;;;1.90;1.70;;;28.00;1.00;;;;;;7368244;19;20011;-68
2022/08/01 11:02:33;;;;;;;1.90;1.80;;;28.20;1.00;;;;;;7369493;19;20018;-68
2022/08/01 11:05:07;;;;;;;2.70;2.05;;;28.60;1.00;;;;;;7370790;19;20010;-68
2022/08/01 11:07:46;;;;;;;5.72;1.75;;;28.20;1.00;;;;;;7361222;19;20094;-67
2022/08/01 11:10:26;;;;;;;2.33;1.73;;;28.10;1.00;;;;;;7368776;19;20010;-68
2022/08/01 11:12:57;;;;;;;3.50;1.90;;;28.10;1.00;;;;;;7391096;19;20154;-68
2022/08/01 11:15:30;;;;;;;2.38;2.10;;;27.40;1.00;;;;;;7366747;19;20022;-70
2022/08/01 11:18:02;;;;;;;2.35;2.00;;;27.70;1.00;;;;;;7359941;19;20014;-68
2022/08/01 11:20:35;;;;;;;3.63;1.90;;;27.60;1.00;;;;;;7369164;19;20018;-67
2022/08/01 11:23:21;;;;;;;3.25;2.20;;;27.80;1.00;;;;;;7367643;19;20017;-69
2022/08/01 11:26:14;;;;;;;2.75;2.13;;;27.90;1.00;;;;;;7366972;19;20019;-68
2022/08/01 11:28:48;;;;;;;4.13;2.08;;;27.60;1.00;;;;;;7360187;19;20018;-68
2022/08/01 11:31:41;;;;;;;2.13;2.00;;;28.20;1.00;;;;;;7368730;19;20375;-69
2022/08/01 11:34:10;;;;;;;2.25;2.13;;;28.20;1.00;;;;;;7367249;19;20474;-68
2022/08/01 11:36:40;;;;;;;3.10;1.92;;;28.40;1.00;;;;;;7383201;19;20018;-67
2022/08/01 11:39:27;;;;;;;2.30;2.10;;;27.80;1.00;;;;;;7366215;19;20141;-68
2022/08/01 11:42:22;;;;;;;4.15;1.90;;;27.70;1.00;;;;;;7367036;19;20038;-68
2022/08/01 11:44:57;;;;;;;1.92;1.73;;;28.20;1.00;;;;;;7368324;19;20114;-68
2022/08/01 11:47:51;;;;;;;2.83;1.88;;;28.30;1.00;;;;;;7357807;19;20017;-67
2022/08/01 11:50:38;;;;;;;4.15;1.98;;;28.40;1.00;;;;;;7368510;19;20010;-68
2022/08/01 11:53:14;;;;;;;2.70;1.90;;;28.20;1.00;;;;;;7368656;19;20090;-68
2022/08/01 11:55:49;;;;;;;2.80;1.80;;;29.10;1.00;;;;;;7366621;19;20022;-68
2022/08/01 11:58:25;;;;;;;2.70;1.85;;;29.20;1.00;;;;;;7360392;19;20034;-69
2022/08/01 12:01:01;;;;;;;2.20;1.73;;;28.40;1.00;;;;;;7389922;19;20021;-68
2022/08/01 12:03:35;;;;;;;2.00;1.80;;;28.40;1.00;;;;;;7364776;19;20017;-68
2022/08/01 12:06:05;;;;;;;2.20;1.63;;;28.40;1.00;;;;;;7366716;19;20549;-68
2022/08/01 12:08:36;;;;;;;2.67;1.70;;;28.20;1.00;;;;;;7362590;19;20516;-68
2022/08/01 12:11:07;;;;;;;3.45;1.90;;;27.90;1.00;;;;;;7367261;19;20019;-68
2022/08/01 12:13:44;;;;;;;3.58;1.73;;;28.20;1.00;;;;;;7367509;19;20011;-68
2022/08/01 12:16:14;;;;;;;3.28;1.98;;;28.40;1.00;;;;;;7366627;19;20078;-69
2022/08/01 12:18:47;;;;;;;2.03;1.80;;;29.20;1.00;;;;;;7383967;19;20069;-69
2022/08/01 12:21:19;;;;;;;3.13;1.98;;;29.00;1.00;;;;;;7365023;19;20013;-68
2022/08/01 12:24:01;;;;;;;1.75;1.65;;;28.30;1.00;;;;;;7364690;19;20014;-68
2022/08/01 12:26:44;;;;;;;3.15;1.80;;;28.40;1.00;;;;;;7364100;19;20010;-68
2022/08/01 12:29:33;;;;;;;8.40;2.25;;;28.70;1.00;;;;;;7365119;19;20017;-68
2022/08/01 12:32:04;;;;;;;2.47;2.00;;;28.60;1.00;;;;;;7365209;19;20027;-68
2022/08/01 12:34:37;;;;;;;3.25;1.80;;;28.40;1.00;;;;;;7365356;19;20029;-69
2022/08/01 12:37:07;;;;;;;2.10;1.70;;;28.00;1.00;;;;;;7355367;19;20078;-68
2022/08/01 12:39:39;;;;;;;4.53;1.75;;;28.60;1.00;;;;;;7387547;19;20049;-68
2022/08/01 12:42:10;;;;;;;1.88;1.40;;;28.60;1.00;;;;;;7363771;19;20484;-69
2022/08/01 12:44:41;;;;;;;2.85;1.50;;;28.00;1.00;;;;;;7365954;19;20098;-68
2022/08/01 12:47:12;;;;;;;3.97;1.90;;;28.40;1.00;;;;;;7355237;19;20086;-68
2022/08/01 12:49:46;;;;;;;2.00;1.70;;;28.80;1.00;;;;;;7365417;19;20077;-68
2022/08/01 12:52:17;;;;;;;;;;;28.50;1.00;;;;;;7365543;19;20089;-69
2022/08/01 12:55:02;;;;;;;3.17;1.98;;;28.60;1.00;;;;;;7386966;19;19952;-68
2022/08/01 12:57:35;;;;;;;4.35;1.80;;;29.10;1.00;;;;;;7355835;19;20021;-69
2022/08/01 13:00:18;;;;;;;1.73;1.60;;;28.70;1.00;;;;;;7364821;19;20010;-70
2022/08/01 13:02:50;;;;;;;1.80;1.70;;;29.30;1.00;;;;;;7364173;19;20025;-68
2022/08/01 13:05:27;;;;;;;2.28;1.70;;;29.00;1.00;;;;;;7365195;19;20035;-69
2022/08/01 13:07:57;;;;;;;4.65;1.65;;;29.10;1.00;;;;;;7355749;19;20476;-68
2022/08/01 13:10:29;;;;;;;1.88;1.38;;;28.80;1.00;;;;;;7365474;19;20022;-68
2022/08/01 13:13:00;;;;;;;1.60;1.50;;;28.80;1.00;;;;;;7387032;19;20018;-67
2022/08/01 13:15:34;;;;;;;2.17;1.55;;;28.80;1.00;;;;;;7364572;19;20027;-68
2022/08/01 13:18:26;;;;;;;2.42;1.30;;;28.70;1.00;;;;;;7355309;19;20011;-69
2022/08/01 13:21:14;;;;;;;1.52;1.40;;;29.00;1.00;;;;;;7366436;19;20011;-70
2022/08/01 13:24:02;;;;;;;1.90;1.52;;;29.00;1.00;;;;;;7363517;19;20015;-69
2022/08/01 13:26:43;;;;;;;1.65;1.35;;;29.10;1.00;;;;;;7361059;19;20014;-69
2022/08/01 13:29:15;;;;;;;1.42;1.33;;;28.70;1.00;;;;;;7362997;19;20047;-69
2022/08/01 13:31:46;;;;;;;1.77;1.50;;;28.90;1.00;;;;;;7365840;19;20006;-69
2022/08/01 13:34:18;;;;;;;3.58;1.63;;;28.90;1.00;;;;;;7365567;19;20474;-68